createdAt,value
2022-09-05T00:02:02.392Z,15.71
2022-09-05T00:04:56.932Z,15.66
2022-09-05T00:07:57.961Z,15.53
2022-09-05T00:10:44.826Z,15.59
2022-09-05T00:13:32.255Z,15.55
2022-09-05T00:16:07.904Z,15.46
2022-09-05T00:24:20.641Z,15.55
2022-09-05T00:24:25.895Z,15.70
2022-09-05T00:25:21.180Z,15.79
2022-09-05T00:28:25.359Z,15.73
2022-09-05T00:31:54.043Z,15.62
2022-09-05T00:34:12.204Z,15.87
2022-09-05T00:36:49.513Z,16.08
2022-09-05T00:39:40.941Z,15.96
2022-09-05T00:42:19.272Z,15.87
2022-09-05T00:44:58.285Z,15.85
2022-09-05T00:48:16.598Z,15.76
2022-09-05T00:50:58.101Z,15.79
2022-09-05T00:53:36.807Z,15.70
2022-09-05T00:56:03.262Z,15.73
2022-09-05T00:58:58.517Z,15.77
2022-09-05T01:01:32.511Z,15.81
2022-09-05T01:04:17.755Z,15.77
2022-09-05T01:06:53.657Z,15.73
2022-09-05T01:09:33.784Z,15.81
2022-09-05T01:12:09.486Z,15.83
2022-09-05T01:15:00.941Z,15.91
2022-09-05T01:17:48.385Z,15.92
2022-09-05T01:20:37.628Z,15.86
2022-09-05T01:23:26.783Z,16.01
2022-09-05T01:26:26.232Z,15.92
2022-09-05T01:29:19.108Z,15.85
2022-09-05T01:32:07.475Z,15.88
2022-09-05T01:34:49.255Z,15.88
2022-09-05T01:37:39.463Z,15.79
2022-09-05T01:40:21.300Z,15.73
2022-09-05T01:43:15.096Z,15.71
2022-09-05T01:46:10.193Z,15.84
2022-09-05T01:48:54.091Z,15.85
2022-09-05T01:51:36.491Z,15.87
2022-09-05T01:54:37.827Z,15.78
2022-09-05T01:57:45.104Z,15.69
2022-09-05T02:00:22.180Z,15.71
2022-09-05T02:03:16.451Z,15.65
2022-09-05T02:06:20.260Z,15.81
2022-09-05T02:09:20.326Z,15.66
2022-09-05T02:11:57.444Z,15.66
2022-09-05T02:14:34.144Z,15.55
2022-09-05T02:17:49.751Z,15.61
2022-09-05T02:20:43.761Z,15.59
2022-09-05T02:23:41.766Z,15.48
2022-09-05T02:26:28.976Z,15.55
2022-09-05T02:29:12.316Z,15.43
2022-09-05T02:32:10.312Z,15.45
2022-09-05T02:34:54.270Z,15.33
2022-09-05T02:41:44.270Z,15.36
2022-09-05T02:45:07.131Z,15.25
2022-09-05T02:45:09.419Z,15.37
2022-09-05T02:47:05.061Z,15.13
2022-09-05T02:51:48.806Z,15.10
2022-09-05T02:57:36.374Z,15.27
2022-09-05T02:57:38.339Z,15.16
2022-09-05T02:59:06.037Z,15.24
2022-09-05T03:01:56.319Z,15.14
2022-09-05T03:04:28.613Z,15.09
2022-09-05T03:07:23.149Z,15.09
2022-09-05T03:10:04.928Z,14.95
2022-09-05T03:12:43.723Z,15.04
2022-09-05T03:15:18.576Z,15.03
2022-09-05T03:18:19.988Z,14.96
2022-09-05T03:21:12.247Z,15.04
2022-09-05T03:24:00.311Z,14.95
2022-09-05T03:26:44.567Z,14.93
2022-09-05T03:29:29.751Z,14.91
2022-09-05T03:32:02.156Z,14.98
2022-09-05T03:34:37.633Z,14.97
2022-09-05T03:37:22.905Z,14.78
2022-09-05T03:40:16.182Z,14.90
2022-09-05T03:43:09.377Z,14.91
2022-09-05T03:46:01.418Z,14.87
2022-09-05T03:48:46.471Z,14.88
2022-09-05T03:57:06.138Z,14.99
2022-09-05T03:57:15.841Z,15.03
2022-09-05T03:57:47.647Z,14.86
2022-09-05T04:00:22.495Z,14.79
2022-09-05T04:05:34.443Z,14.63
2022-09-05T04:08:13.499Z,14.77
2022-09-05T04:09:19.360Z,14.88
2022-09-05T04:12:13.799Z,14.82
2022-09-05T04:14:59.624Z,14.75
2022-09-05T04:17:28.967Z,14.76
2022-09-05T04:20:03.608Z,14.75
2022-09-05T04:23:00.973Z,14.74
2022-09-05T04:26:16.188Z,14.78
2022-09-05T04:29:03.481Z,14.75
2022-09-05T04:31:56.342Z,14.77
2022-09-05T04:35:26.741Z,14.77
2022-09-05T04:37:56.398Z,14.78
2022-09-05T04:40:41.224Z,14.81
2022-09-05T04:43:13.872Z,14.76
2022-09-05T04:45:55.296Z,14.78
2022-09-05T04:48:41.904Z,14.86
2022-09-05T04:51:44.154Z,14.81
2022-09-05T04:54:30.324Z,14.87
2022-09-05T04:57:13.939Z,14.90
2022-09-05T05:03:18.621Z,15.09
2022-09-05T05:06:05.614Z,15.11
2022-09-05T05:06:16.112Z,15.13
2022-09-05T05:08:39.029Z,15.19
2022-09-05T05:16:03.639Z,15.27
2022-09-05T05:17:57.399Z,15.33
2022-09-05T05:18:13.920Z,15.35
2022-09-05T05:21:07.517Z,15.50
2022-09-05T05:23:41.571Z,15.68
2022-09-05T05:26:19.940Z,15.79
2022-09-05T05:28:59.431Z,15.81
2022-09-05T05:31:30.271Z,15.70
2022-09-05T05:34:02.212Z,15.84
2022-09-05T05:36:38.360Z,15.84
2022-09-05T05:39:14.191Z,15.85
2022-09-05T05:41:46.609Z,15.89
2022-09-05T05:44:26.179Z,16.00
2022-09-05T05:47:17.560Z,16.12
2022-09-05T05:50:01.185Z,16.27
2022-09-05T05:52:27.655Z,16.51
2022-09-05T05:55:42.248Z,16.46
2022-09-05T05:58:04.271Z,16.46
2022-09-05T06:00:57.840Z,16.54
2022-09-05T06:03:36.347Z,16.52
2022-09-05T06:06:15.931Z,16.75
2022-09-05T06:14:51.067Z,16.87
2022-09-05T06:15:04.849Z,16.91
2022-09-05T06:15:26.706Z,17.22
2022-09-05T06:18:24.860Z,17.28
2022-09-05T06:22:10.955Z,17.33
2022-09-05T06:24:54.346Z,17.42
2022-09-05T06:27:36.589Z,17.58
2022-09-05T06:30:19.351Z,17.58
2022-09-05T06:33:08.865Z,17.58
2022-09-05T06:35:59.056Z,17.76
2022-09-05T06:38:55.613Z,17.69
2022-09-05T06:41:22.062Z,17.62
2022-09-05T06:44:06.241Z,17.50
2022-09-05T06:46:54.785Z,17.55
2022-09-05T06:49:48.855Z,17.65
2022-09-05T06:52:51.704Z,18.08
2022-09-05T06:55:27.116Z,18.25
2022-09-05T06:58:15.457Z,18.37
2022-09-05T07:00:51.276Z,18.32
2022-09-05T07:03:24.205Z,18.31
2022-09-05T07:05:57.333Z,18.23
2022-09-05T07:08:54.004Z,18.67
2022-09-05T07:11:43.729Z,18.48
2022-09-05T07:14:22.860Z,18.61
2022-09-05T07:17:13.904Z,18.55
2022-09-05T07:20:02.526Z,18.88
2022-09-05T07:22:47.512Z,19.08
2022-09-05T07:25:26.263Z,19.32
2022-09-05T07:28:26.148Z,19.13
2022-09-05T07:30:51.593Z,19.48
2022-09-05T07:33:28.087Z,19.58
2022-09-05T07:36:00.008Z,19.71
2022-09-05T07:38:35.283Z,19.75
2022-09-05T07:41:30.838Z,19.89
2022-09-05T07:44:09.560Z,19.76
2022-09-05T07:46:40.147Z,19.84
2022-09-05T07:49:09.133Z,20.03
2022-09-05T07:56:48.158Z,20.12
2022-09-05T07:57:05.034Z,19.90
2022-09-05T07:57:30.704Z,19.96
2022-09-05T08:00:26.168Z,19.83
2022-09-05T08:02:58.258Z,20.01
2022-09-05T08:05:34.464Z,20.00
2022-09-05T08:08:09.302Z,19.92
2022-09-05T08:11:24.359Z,20.03
2022-09-05T08:13:42.500Z,20.39
2022-09-05T08:16:19.460Z,20.46
2022-09-05T08:19:37.067Z,20.59
2022-09-05T08:22:08.468Z,20.52
2022-09-05T08:24:43.340Z,20.43
2022-09-05T08:27:17.122Z,20.43
2022-09-05T08:30:26.113Z,20.34
2022-09-05T08:32:49.515Z,20.30
2022-09-05T08:35:25.914Z,20.75
2022-09-05T08:37:54.425Z,21.15
2022-09-05T08:40:35.620Z,21.05
2022-09-05T08:45:58.570Z,21.23
2022-09-05T08:46:48.566Z,21.27
2022-09-05T08:50:04.600Z,21.48
2022-09-05T08:52:55.903Z,21.51
2022-09-05T08:55:35.347Z,21.47
2022-09-05T08:58:13.265Z,21.33
2022-09-05T09:01:00.227Z,21.25
2022-09-05T09:04:10.714Z,21.22
2022-09-05T09:07:14.477Z,21.20
2022-09-05T09:09:57.667Z,21.45
2022-09-05T09:13:05.771Z,21.95
2022-09-05T09:16:04.644Z,22.53
2022-09-05T09:18:57.490Z,22.46
2022-09-05T09:21:46.057Z,22.37
2022-09-05T09:24:35.668Z,22.48
2022-09-05T09:27:09.181Z,22.50
2022-09-05T09:29:40.137Z,22.81
2022-09-05T09:32:17.165Z,23.14
2022-09-05T09:35:06.296Z,23.24
2022-09-05T09:37:58.731Z,23.14
2022-09-05T09:40:28.957Z,23.20
2022-09-05T09:43:17.717Z,23.71
2022-09-05T09:46:02.972Z,23.68
2022-09-05T09:48:51.722Z,23.82
2022-09-05T09:51:36.699Z,24.01
2022-09-05T09:54:35.847Z,24.48
2022-09-05T09:57:44.909Z,24.54
2022-09-05T10:00:22.936Z,23.75
2022-09-05T10:07:25.377Z,23.82
2022-09-05T10:10:49.592Z,24.23
2022-09-05T10:11:08.798Z,24.22
2022-09-05T10:11:55.448Z,23.82
2022-09-05T10:14:47.567Z,23.57
2022-09-05T10:17:27.824Z,24.33
2022-09-05T10:20:14.708Z,23.81
2022-09-05T10:22:50.371Z,24.02
2022-09-05T10:25:19.298Z,24.10
2022-09-05T10:27:59.559Z,24.87
2022-09-05T10:32:31.324Z,25.08
2022-09-05T10:35:09.479Z,25.48
2022-09-05T10:36:33.697Z,24.67
2022-09-05T10:39:04.286Z,24.55
2022-09-05T10:41:49.190Z,24.35
2022-09-05T10:44:17.319Z,24.99
2022-09-05T10:46:55.690Z,25.07
2022-09-05T10:49:26.939Z,25.76
2022-09-05T10:52:05.397Z,25.62
2022-09-05T10:54:48.538Z,26.28
2022-09-05T10:57:34.854Z,26.58
2022-09-05T11:02:23.064Z,26.99
2022-09-05T11:02:57.862Z,27.23
2022-09-05T11:05:29.227Z,27.34
2022-09-05T11:08:11.593Z,27.96
2022-09-05T11:10:47.150Z,28.64
2022-09-05T11:13:23.832Z,28.64
2022-09-05T11:16:22.804Z,28.17
2022-09-05T11:19:15.050Z,27.82
2022-09-05T11:21:41.607Z,26.49
2022-09-05T11:24:07.966Z,26.17
2022-09-05T11:26:39.441Z,25.32
2022-09-05T11:29:09.514Z,25.37
2022-09-05T11:32:11.776Z,26.22
2022-09-05T11:39:54.160Z,26.30
2022-09-05T11:40:08.820Z,27.21
2022-09-05T11:41:01.464Z,28.15
2022-09-05T11:43:56.443Z,29.39
2022-09-05T11:46:42.788Z,29.45
2022-09-05T11:49:17.575Z,30.32
2022-09-05T11:52:02.571Z,29.94
2022-09-05T11:54:46.162Z,28.61
2022-09-05T11:57:33.133Z,28.72
2022-09-05T12:00:10.854Z,29.53
2022-09-05T12:03:00.815Z,29.34
2022-09-05T12:05:49.120Z,29.63
2022-09-05T12:08:29.846Z,28.47
2022-09-05T12:11:04.431Z,27.06
2022-09-05T12:13:31.794Z,27.17
2022-09-05T12:16:08.363Z,26.70
2022-09-05T12:18:55.516Z,26.66
2022-09-05T12:21:38.190Z,27.05
2022-09-05T12:25:17.043Z,26.32
2022-09-05T12:27:42.378Z,26.20
2022-09-05T12:29:50.565Z,26.69
2022-09-05T12:33:59.348Z,26.79
2022-09-05T12:36:05.996Z,27.69
2022-09-05T12:40:58.022Z,27.40
2022-09-05T12:41:43.841Z,29.03
2022-09-05T12:44:39.061Z,27.93
2022-09-05T12:47:16.815Z,27.83
2022-09-05T12:49:51.844Z,28.37
2022-09-05T12:52:34.507Z,28.55
2022-09-05T12:55:10.980Z,28.48
2022-09-05T13:00:21.479Z,29.01
2022-09-05T13:03:02.134Z,29.31
2022-09-05T13:03:27.822Z,29.97
2022-09-05T13:06:25.641Z,30.69
2022-09-05T13:08:59.120Z,33.10
2022-09-05T13:14:52.851Z,34.28
2022-09-05T13:14:59.902Z,33.25
2022-09-05T13:17:13.886Z,33.45
2022-09-05T13:19:50.973Z,33.63
2022-09-05T13:22:19.827Z,33.26
2022-09-05T13:24:50.267Z,31.43
2022-09-05T13:27:26.175Z,29.95
2022-09-05T13:31:12.383Z,29.05
2022-09-05T13:38:02.195Z,27.64
2022-09-05T13:38:12.827Z,28.10
2022-09-05T13:38:48.863Z,28.19
2022-09-05T13:41:27.098Z,29.33
2022-09-05T13:44:24.891Z,28.39
2022-09-05T13:46:59.453Z,28.51
2022-09-05T13:49:40.763Z,27.55
2022-09-05T13:52:16.911Z,28.44
2022-09-05T13:54:51.817Z,28.04
2022-09-05T13:57:32.172Z,27.47
2022-09-05T14:00:15.315Z,26.81
2022-09-05T14:05:45.667Z,25.57
2022-09-05T14:08:24.054Z,25.27
2022-09-05T14:10:50.430Z,25.17
2022-09-05T14:13:24.931Z,24.85
2022-09-05T14:15:59.013Z,24.77
2022-09-05T14:18:29.941Z,24.79
2022-09-05T14:21:15.772Z,25.08
2022-09-05T14:23:53.397Z,25.50
2022-09-05T14:26:23.541Z,24.63
2022-09-05T14:29:05.857Z,24.10
2022-09-05T14:37:45.288Z,23.64
2022-09-05T14:37:53.460Z,24.05
2022-09-05T14:38:05.627Z,23.01
2022-09-05T14:40:37.048Z,23.02
2022-09-05T14:43:24.457Z,23.23
2022-09-05T14:46:06.371Z,23.55
2022-09-05T14:48:53.109Z,24.08
2022-09-05T14:51:27.634Z,23.71
2022-09-05T14:58:19.597Z,22.56
2022-09-05T15:02:44.337Z,23.05
2022-09-05T15:02:44.338Z,22.89
2022-09-05T15:05:10.989Z,23.31
2022-09-05T15:07:38.881Z,22.80
2022-09-05T15:12:25.033Z,22.62
2022-09-05T15:13:00.647Z,22.29
2022-09-05T15:15:30.788Z,22.54
2022-09-05T15:17:57.157Z,22.57
2022-09-05T15:20:34.991Z,22.32
2022-09-05T15:23:16.268Z,22.54
2022-09-05T15:25:45.781Z,22.94
2022-09-05T15:28:30.567Z,22.80
2022-09-05T15:30:58.579Z,22.81
2022-09-05T15:33:28.211Z,22.85
2022-09-05T15:35:55.473Z,23.04
2022-09-05T15:38:30.247Z,22.70
2022-09-05T15:41:11.531Z,22.65
2022-09-05T15:43:40.249Z,22.62
2022-09-05T15:46:07.030Z,22.14
2022-09-05T15:48:35.524Z,21.79
2022-09-05T15:51:07.778Z,21.57
2022-09-05T15:53:36.960Z,21.69
2022-09-05T15:56:09.508Z,21.60
2022-09-05T15:58:54.177Z,21.24
2022-09-05T16:01:40.004Z,21.27
2022-09-05T16:09:51.239Z,20.97
2022-09-05T16:10:34.100Z,21.27
2022-09-05T16:10:50.858Z,21.68
2022-09-05T16:16:32.294Z,20.80
2022-09-05T16:23:26.020Z,20.30
2022-09-05T16:23:34.266Z,20.29
2022-09-05T16:24:04.900Z,20.49
2022-09-05T16:26:34.680Z,20.74
2022-09-05T16:29:02.630Z,20.73
2022-09-05T16:31:38.322Z,20.67
2022-09-05T16:34:08.410Z,20.46
2022-09-05T16:36:50.496Z,20.16
2022-09-05T16:39:32.237Z,20.31
2022-09-05T16:42:02.321Z,20.16
2022-09-05T16:44:29.085Z,20.52
2022-09-05T16:47:01.817Z,20.46
2022-09-05T16:49:43.195Z,20.04
2022-09-05T16:52:17.245Z,20.05
2022-09-05T16:54:50.389Z,20.07
2022-09-05T16:57:20.338Z,19.75
2022-09-05T16:59:47.724Z,19.72
2022-09-05T17:02:26.210Z,19.62
2022-09-05T17:05:04.963Z,20.11
2022-09-05T17:07:50.995Z,20.04
2022-09-05T17:10:18.844Z,19.72
2022-09-05T17:12:45.807Z,19.73
2022-09-05T17:15:39.265Z,19.72
2022-09-05T17:18:24.205Z,19.61
2022-09-05T17:20:57.140Z,19.43
2022-09-05T17:29:23.664Z,19.36
2022-09-05T17:29:27.000Z,19.55
2022-09-05T17:32:44.118Z,19.14
2022-09-05T17:35:16.838Z,19.31
2022-09-05T17:37:50.304Z,19.36
2022-09-05T17:40:37.828Z,18.87
2022-09-05T17:43:06.694Z,18.76
2022-09-05T17:45:48.584Z,18.53
2022-09-05T17:48:16.625Z,18.68
2022-09-05T17:50:45.171Z,18.62
2022-09-05T17:53:26.201Z,18.72
2022-09-05T17:55:54.761Z,18.61
2022-09-05T17:58:49.537Z,18.58
2022-09-05T18:01:27.074Z,18.46
2022-09-05T18:03:55.573Z,18.57
2022-09-05T18:06:52.639Z,18.16
2022-09-05T18:09:34.488Z,18.23
2022-09-05T18:12:21.509Z,18.16
2022-09-05T18:15:04.842Z,18.03
2022-09-05T18:17:38.308Z,18.06
2022-09-05T18:20:16.353Z,18.14
2022-09-05T18:22:45.514Z,18.08
2022-09-05T18:25:27.797Z,18.18
2022-09-05T18:30:47.418Z,17.85
2022-09-05T18:33:53.537Z,17.78
2022-09-05T18:36:25.856Z,17.81
2022-09-05T18:39:12.914Z,17.91
2022-09-05T18:41:42.816Z,17.90
2022-09-05T18:44:13.152Z,17.82
2022-09-05T18:46:48.702Z,17.62
2022-09-05T18:50:21.425Z,17.63
2022-09-05T18:52:33.061Z,17.52
2022-09-05T18:56:09.626Z,17.60
2022-09-05T18:57:59.123Z,17.70
2022-09-05T19:00:46.838Z,17.74
2022-09-05T19:03:25.039Z,17.70
2022-09-05T19:06:35.733Z,17.71
2022-09-05T19:08:51.162Z,17.71
2022-09-05T19:11:30.515Z,17.50
2022-09-05T19:14:26.079Z,17.47
2022-09-05T19:16:53.643Z,17.43
2022-09-05T19:19:26.434Z,17.71
2022-09-05T19:22:46.611Z,17.42
2022-09-05T19:24:47.110Z,17.31
2022-09-05T19:29:27.922Z,17.19
2022-09-05T19:36:55.078Z,17.24
2022-09-05T19:36:55.468Z,17.34
2022-09-05T19:37:05.308Z,17.36
2022-09-05T19:38:25.626Z,17.39
2022-09-05T19:47:31.500Z,17.13
2022-09-05T19:47:50.282Z,17.39
2022-09-05T19:47:50.440Z,17.27
2022-09-05T19:49:38.169Z,17.28
2022-09-05T19:52:17.257Z,17.17
2022-09-05T19:54:49.647Z,17.18
2022-09-05T19:57:19.424Z,16.97
2022-09-05T19:59:46.796Z,16.95
2022-09-05T20:02:19.927Z,16.91
2022-09-05T20:04:53.017Z,16.91
2022-09-05T20:07:21.506Z,17.18
2022-09-05T20:09:48.959Z,17.10
2022-09-05T20:12:22.108Z,16.99
2022-09-05T20:14:50.866Z,17.12
2022-09-05T20:17:17.247Z,16.85
2022-09-05T20:19:43.765Z,16.87
2022-09-05T20:22:47.649Z,16.92
2022-09-05T20:24:59.262Z,16.74
2022-09-05T20:27:29.580Z,16.81
2022-09-05T20:30:04.168Z,16.58
2022-09-05T20:32:39.709Z,16.56
2022-09-05T20:40:22.641Z,16.64
2022-09-05T20:43:17.743Z,16.56
2022-09-05T20:43:36.547Z,16.47
2022-09-05T20:43:54.434Z,16.40
2022-09-05T20:50:26.056Z,16.58
2022-09-05T20:54:15.138Z,16.47
2022-09-05T20:54:20.746Z,16.43
2022-09-05T20:54:56.187Z,16.33
2022-09-05T20:57:30.218Z,16.32
2022-09-05T21:00:02.376Z,16.22
2022-09-05T21:02:31.143Z,16.52
2022-09-05T21:05:06.853Z,16.22
2022-09-05T21:07:59.226Z,16.17
2022-09-05T21:10:33.908Z,16.27
2022-09-05T21:13:21.851Z,16.18
2022-09-05T21:15:52.564Z,16.30
2022-09-05T21:18:22.439Z,16.06
2022-09-05T21:20:56.332Z,16.24
2022-09-05T21:23:31.595Z,16.13
2022-09-05T21:25:59.251Z,16.38
2022-09-05T21:28:36.374Z,16.38
2022-09-05T21:31:06.453Z,16.34
2022-09-05T21:33:45.263Z,16.17
2022-09-05T21:36:14.683Z,16.23
2022-09-05T21:38:42.109Z,16.13
2022-09-05T21:41:08.603Z,16.13
2022-09-05T21:47:35.736Z,16.17
2022-09-05T21:47:43.876Z,16.00
2022-09-05T21:49:13.689Z,16.14
2022-09-05T21:51:40.105Z,16.09
2022-09-05T21:58:27.820Z,16.30
2022-09-05T21:59:27.321Z,16.20
2022-09-05T21:59:55.244Z,16.20
2022-09-05T22:02:22.199Z,16.26
2022-09-05T22:04:49.614Z,16.23
2022-09-05T22:07:27.347Z,16.17
2022-09-05T22:09:59.713Z,16.17
2022-09-05T22:12:35.937Z,16.26
2022-09-05T22:15:26.176Z,16.12
2022-09-05T22:17:54.191Z,16.14
2022-09-05T22:20:25.616Z,16.05
2022-09-05T22:22:56.462Z,16.09
2022-09-05T22:25:27.686Z,15.86
2022-09-05T22:27:57.357Z,15.75
2022-09-05T22:30:24.011Z,15.77
2022-09-05T22:32:50.418Z,15.65
2022-09-05T22:35:28.568Z,15.75
2022-09-05T22:37:59.633Z,15.85
2022-09-05T22:40:27.591Z,16.03
2022-09-05T22:42:58.034Z,15.76
2022-09-05T22:45:25.053Z,15.83
2022-09-05T22:47:51.772Z,15.89
2022-09-05T22:50:18.571Z,15.96
2022-09-05T22:52:44.970Z,15.98
2022-09-05T22:55:11.374Z,16.15
2022-09-05T22:57:38.528Z,16.06
2022-09-05T23:00:05.827Z,15.97
2022-09-05T23:02:32.303Z,16.24
2022-09-05T23:04:58.748Z,16.23
2022-09-05T23:07:25.126Z,16.20
2022-09-05T23:09:51.514Z,16.14
2022-09-05T23:12:17.880Z,16.21
2022-09-05T23:14:44.230Z,16.24
2022-09-05T23:17:12.696Z,16.40
2022-09-05T23:19:39.058Z,16.17
2022-09-05T23:22:05.624Z,15.95
2022-09-05T23:24:32.048Z,15.81
2022-09-05T23:26:58.418Z,15.95
2022-09-05T23:29:25.054Z,16.03
2022-09-05T23:31:51.463Z,15.99
2022-09-05T23:34:17.839Z,16.11
2022-09-05T23:36:44.273Z,15.91
2022-09-05T23:39:10.667Z,15.95
2022-09-05T23:41:37.044Z,15.81
2022-09-05T23:44:03.428Z,15.76
2022-09-05T23:46:29.852Z,15.76
2022-09-05T23:48:56.267Z,15.61
2022-09-05T23:51:22.824Z,15.59
2022-09-05T23:53:49.192Z,15.53
2022-09-05T23:56:15.557Z,15.31
2022-09-05T23:58:42.008Z,15.28
